Time;durP1;ratioP1;P1;durP2;ratioP2;P2;SDS_P1;SDS_P2;PMS_P1;PMS_P2;Temp;Humidity;BMP_temperature;BMP_pressure;BME280_temperature;BME280_humidity;BME280_pressure;Samples;Min_cycle;Max_cycle;Signal;HPM_P1;HPM_P2
2023/12/25 00:01:29;;;;;;;138.27;89.80;;;9.40;99.90;;;;;;4904813;29;20051;-52
2023/12/25 00:03:55;;;;;;;132.93;90.30;;;9.50;99.90;;;;;;4954234;29;20090;-52
2023/12/25 00:06:22;;;;;;;131.73;90.60;;;9.60;99.90;;;;;;4954336;29;20060;-53
2023/12/25 00:08:48;;;;;;;124.32;84.75;;;9.60;99.90;;;;;;4953408;28;20399;-53
2023/12/25 00:11:15;;;;;;;95.20;66.20;;;;;;;;;;4954458;29;20027;-53
2023/12/25 00:13:41;;;;;;;114.30;76.82;;;9.90;99.90;;;;;;4954815;29;20027;-53
2023/12/25 00:16:07;;;;;;;90.38;62.35;;;10.00;99.90;;;;;;4920148;29;20035;-53
2023/12/25 00:18:32;;;;;;;93.15;62.42;;;9.80;99.90;;;;;;4904784;29;20038;-53
2023/12/25 00:20:58;;;;;;;84.30;56.72;;;9.90;99.90;;;;;;4954251;29;20498;-53
2023/12/25 00:23:24;;;;;;;124.53;79.07;;;9.80;99.90;;;;;;4954195;29;20395;-52
2023/12/25 00:25:50;;;;;;;123.03;76.68;;;9.50;99.90;;;;;;4953985;29;20085;-53
2023/12/25 00:28:15;;;;;;;95.03;66.65;;;9.00;99.90;;;;;;4904558;29;20098;-53
2023/12/25 00:30:41;;;;;;;88.07;58.35;;;8.90;99.90;;;;;;4953903;29;20031;-56
2023/12/25 00:33:07;;;;;;;77.60;51.72;;;9.10;99.90;;;;;;4953838;29;20101;-53
2023/12/25 00:35:32;;;;;;;63.75;44.00;;;9.20;99.90;;;;;;4954245;29;20095;-53
2023/12/25 00:37:58;;;;;;;70.05;47.15;;;;;;;;;;4953825;29;20535;-53
2023/12/25 00:40:24;;;;;;;74.50;50.80;;;9.40;99.90;;;;;;4904684;29;20035;-53
2023/12/25 00:42:50;;;;;;;74.60;53.40;;;9.60;99.90;;;;;;4954194;29;20494;-52
2023/12/25 00:45:15;;;;;;;108.82;77.70;;;9.70;99.90;;;;;;4954097;29;20024;-52
2023/12/25 00:47:41;;;;;;;72.05;51.33;;;9.70;99.90;;;;;;4953851;29;20027;-53
2023/12/25 00:50:07;;;;;;;85.32;60.97;;;9.70;99.90;;;;;;4953559;29;20039;-53
2023/12/25 00:52:33;;;;;;;77.15;53.58;;;9.70;99.90;;;;;;4954019;29;20031;-53
2023/12/25 00:54:58;;;;;;;72.88;43.65;;;9.60;99.90;;;;;;4953866;29;20027;-53
2023/12/25 00:57:26;;;;;;;66.60;45.22;;;;;;;;;;4953934;29;20062;-53
2023/12/25 00:59:53;;;;;;;61.88;43.88;;;;;;;;;;4953710;29;20043;-53
2023/12/25 01:02:18;;;;;;;62.95;43.45;;;9.90;99.90;;;;;;4953810;29;20369;-53
2023/12/25 01:04:45;;;;;;;62.03;44.58;;;9.90;99.90;;;;;;4953719;29;20110;-53
2023/12/25 01:07:11;;;;;;;65.20;46.13;;;10.00;99.90;;;;;;4953600;29;20031;-53
2023/12/25 01:09:37;;;;;;;125.55;69.28;;;10.10;99.90;;;;;;4904043;29;20043;-52
2023/12/25 01:12:03;;;;;;;112.85;65.45;;;10.00;99.90;;;;;;4878175;29;20037;-53
2023/12/25 01:14:28;;;;;;;83.55;54.45;;;10.20;99.90;;;;;;4878484;29;20041;-53
2023/12/25 01:16:54;;;;;;;111.38;81.15;;;10.20;99.90;;;;;;4894091;29;20420;-51
2023/12/25 01:19:20;;;;;;;71.53;50.72;;;10.10;99.90;;;;;;4863026;29;20096;-53
2023/12/25 01:21:46;;;;;;;80.15;50.83;;;10.20;99.90;;;;;;4897657;29;20048;-53
2023/12/25 01:24:11;;;;;;;73.57;48.00;;;10.30;99.90;;;;;;4851242;29;20047;-53
2023/12/25 01:26:37;;;;;;;62.65;43.30;;;10.30;99.90;;;;;;4897908;29;20798;-53
2023/12/25 01:29:03;;;;;;;72.40;47.67;;;10.40;99.90;;;;;;4897780;29;20036;-52
2023/12/25 01:31:28;;;;;;;75.50;48.92;;;10.40;99.90;;;;;;4881898;29;20454;-53
2023/12/25 01:33:54;;;;;;;66.05;47.75;;;10.40;99.90;;;;;;4882032;29;20040;-52
2023/12/25 01:36:20;;;;;;;76.13;47.42;;;10.50;99.90;;;;;;4897694;29;20028;-53
2023/12/25 01:38:45;;;;;;;74.30;49.78;;;10.50;99.90;;;;;;4896513;29;20045;-53
2023/12/25 01:41:11;;;;;;;61.38;41.80;;;10.60;99.90;;;;;;4897441;29;20144;-52
2023/12/25 01:43:37;;;;;;;85.25;58.67;;;10.50;99.90;;;;;;4897282;29;20043;-53
2023/12/25 01:46:03;;;;;;;61.60;42.95;;;10.40;99.90;;;;;;4957019;29;20042;-53
2023/12/25 01:48:30;;;;;;;47.85;33.10;;;;;;;;;;4956980;29;20024;-53
2023/12/25 01:50:59;;;;;;;48.35;33.45;;;;;;;;;;4956659;29;20566;-53
2023/12/25 01:53:25;;;;;;;55.35;37.72;;;10.80;99.90;;;;;;4956677;29;20494;-52
2023/12/25 01:55:51;;;;;;;49.35;31.45;;;10.70;99.90;;;;;;4956965;29;20034;-52
2023/12/25 01:58:16;;;;;;;45.38;30.40;;;10.60;99.90;;;;;;4956573;29;20038;-53
2023/12/25 02:00:42;;;;;;;40.60;25.05;;;10.60;99.90;;;;;;4907179;29;20115;-53
2023/12/25 02:03:08;;;;;;;37.20;23.92;;;10.70;99.90;;;;;;4956736;29;20051;-53
2023/12/25 02:05:33;;;;;;;43.53;24.83;;;10.60;99.90;;;;;;4956562;29;20062;-52
2023/12/25 02:08:00;;;;;;;32.50;19.45;;;;;;;;;;4956731;29;20050;-53
2023/12/25 02:10:28;;;;;;;32.70;20.13;;;;;;;;;;4956414;29;20070;-53
2023/12/25 02:12:54;;;;;;;35.15;22.15;;;11.20;99.90;;;;;;4956588;29;20117;-53
2023/12/25 02:15:20;;;;;;;45.05;26.15;;;11.20;99.90;;;;;;4956385;29;20027;-53
2023/12/25 02:17:45;;;;;;;38.65;24.48;;;11.10;99.90;;;;;;4956411;29;20046;-52
2023/12/25 02:20:13;;;;;;;32.38;20.70;;;11.10;99.90;;;;;;4956375;29;20471;-53
2023/12/25 02:22:40;;;;;;;32.50;21.77;;;;;;;;;;4956266;29;20063;-53
2023/12/25 02:25:32;;;;;;;29.20;19.70;;;11.20;99.90;;;;;;4956541;29;20057;-53
2023/12/25 02:27:59;;;;;;;24.48;13.90;;;;;;;;;;4956278;29;20031;-53
2023/12/25 02:30:25;;;;;;;24.00;15.63;;;11.50;99.90;;;;;;4956506;29;20070;-52
2023/12/25 02:32:51;;;;;;;25.45;17.45;;;11.40;99.90;;;;;;4955400;28;20525;-54
2023/12/25 02:35:17;;;;;;;18.83;12.30;;;11.40;99.90;;;;;;4956158;29;20031;-54
2023/12/25 02:37:42;;;;;;;25.63;15.60;;;11.50;99.90;;;;;;4955933;29;20118;-52
2023/12/25 02:40:09;;;;;;;22.88;15.40;;;11.50;99.90;;;;;;4956011;29;20046;-52
2023/12/25 02:42:35;;;;;;;23.88;16.25;;;11.60;99.90;;;;;;4906000;29;20043;-53
2023/12/25 02:45:00;;;;;;;28.75;17.38;;;11.70;99.90;;;;;;4955948;29;20101;-53
2023/12/25 02:47:26;;;;;;;19.40;10.55;;;11.70;99.90;;;;;;4956030;29;20061;-52
2023/12/25 02:49:52;;;;;;;23.02;15.15;;;;;;;;;;4955885;29;20090;-52
2023/12/25 02:52:18;;;;;;;15.60;10.00;;;11.80;99.90;;;;;;4955835;29;20434;-52
2023/12/25 02:54:44;;;;;;;14.98;9.18;;;11.70;99.90;;;;;;4955828;29;20110;-52
2023/12/25 02:57:10;;;;;;;18.27;11.20;;;;;;;;;;4937542;29;20118;-52
2023/12/25 02:59:36;;;;;;;18.05;10.80;;;;;;;;;;4955511;29;20037;-52
2023/12/25 03:02:02;;;;;;;16.00;10.40;;;;;;;;;;4955400;29;20054;-52
2023/12/25 03:04:28;;;;;;;18.65;10.50;;;;;;;;;;4955468;29;20431;-52
2023/12/25 03:06:54;;;;;;;16.02;10.23;;;11.50;99.90;;;;;;4955472;29;20094;-53
2023/12/25 03:09:20;;;;;;;13.68;7.55;;;11.50;99.90;;;;;;4955450;29;20066;-53
2023/12/25 03:11:46;;;;;;;12.05;6.38;;;11.50;99.90;;;;;;4955292;29;20035;-53
2023/12/25 03:14:12;;;;;;;14.10;9.50;;;11.50;99.90;;;;;;4937317;29;20043;-52
2023/12/25 03:16:37;;;;;;;21.40;11.98;;;11.50;99.90;;;;;;4955451;29;20118;-53
2023/12/25 03:19:03;;;;;;;15.98;9.98;;;11.50;99.90;;;;;;4955234;29;20070;-53
2023/12/25 03:21:29;;;;;;;15.70;10.00;;;11.60;99.90;;;;;;4937142;29;20047;-54
2023/12/25 03:23:55;;;;;;;15.68;10.25;;;11.50;99.90;;;;;;4955192;29;20031;-53
2023/12/25 03:26:21;;;;;;;26.75;12.52;;;11.60;99.90;;;;;;4955259;29;20122;-52
2023/12/25 03:28:46;;;;;;;31.35;18.83;;;11.50;99.90;;;;;;4954885;29;20110;-53
2023/12/25 03:31:12;;;;;;;19.40;12.32;;;11.50;99.90;;;;;;4955368;29;20110;-52
2023/12/25 03:33:38;;;;;;;18.38;11.50;;;11.40;99.90;;;;;;4954937;29;20035;-53
2023/12/25 03:36:05;;;;;;;21.88;12.40;;;11.50;99.90;;;;;;4955035;29;20450;-52
2023/12/25 03:38:31;;;;;;;15.18;9.07;;;11.50;99.90;;;;;;4905667;29;20518;-53
2023/12/25 03:40:57;;;;;;;16.27;10.20;;;11.50;99.90;;;;;;4954787;29;20031;-54
2023/12/25 03:43:23;;;;;;;19.95;9.23;;;11.50;99.90;;;;;;4954656;28;20230;-54
2023/12/25 03:45:49;;;;;;;16.08;9.43;;;;;;;;;;4954565;29;20114;-52
2023/12/25 03:48:16;;;;;;;21.00;10.20;;;11.60;99.90;;;;;;4954754;29;20661;-53
2023/12/25 03:50:42;;;;;;;24.10;10.38;;;;;;;;;;4954531;29;20126;-52
2023/12/25 03:53:09;;;;;;;20.20;9.85;;;;;;;;;;4954724;29;20031;-54
2023/12/25 03:55:37;;;;;;;20.58;10.70;;;;;;;;;;4954664;29;20055;-53
2023/12/25 03:58:04;;;;;;;15.50;9.82;;;;;;;;;;4954503;29;20039;-53
2023/12/25 04:00:30;;;;;;;18.70;11.60;;;11.70;99.90;;;;;;4954519;29;20054;-52
2023/12/25 04:02:58;;;;;;;17.58;11.07;;;11.10;99.90;;;;;;4954201;29;20059;-53
2023/12/25 04:05:24;;;;;;;21.20;12.50;;;10.90;99.90;;;;;;4904756;29;20047;-53
2023/12/25 04:07:50;;;;;;;17.45;11.30;;;10.90;99.90;;;;;;4954316;29;20031;-52
2023/12/25 04:10:17;;;;;;;16.88;12.32;;;10.70;99.90;;;;;;4954400;29;20047;-52
2023/12/25 04:12:42;;;;;;;17.60;10.90;;;10.80;99.90;;;;;;4952087;29;20109;-53
2023/12/25 04:15:09;;;;;;;18.02;10.70;;;10.90;99.90;;;;;;4954323;29;20087;-52
2023/12/25 04:17:35;;;;;;;20.60;12.00;;;10.90;99.90;;;;;;4904605;29;21140;-52
2023/12/25 04:20:00;;;;;;;27.42;18.38;;;10.90;99.90;;;;;;4952112;29;20070;-52
2023/12/25 04:22:26;;;;;;;22.13;14.38;;;10.70;99.90;;;;;;4954464;29;20125;-52
2023/12/25 04:24:52;;;;;;;21.13;12.88;;;10.70;99.90;;;;;;4953983;29;20035;-53
2023/12/25 04:27:18;;;;;;;16.75;11.82;;;10.80;99.90;;;;;;4954084;29;20035;-52
2023/12/25 04:29:44;;;;;;;26.58;12.23;;;10.80;99.90;;;;;;4951802;29;20045;-53
2023/12/25 04:32:10;;;;;;;25.48;12.88;;;10.90;99.90;;;;;;4954049;29;20027;-52
2023/12/25 04:34:36;;;;;;;26.10;14.25;;;11.00;99.90;;;;;;4953982;29;20046;-53
2023/12/25 04:37:02;;;;;;;25.75;13.52;;;11.00;99.90;;;;;;4954026;29;20043;-52
2023/12/25 04:39:28;;;;;;;30.65;17.15;;;11.00;99.90;;;;;;4954221;29;20062;-53
2023/12/25 04:41:53;;;;;;;32.35;18.73;;;11.00;99.90;;;;;;4953808;29;20058;-52
2023/12/25 04:44:19;;;;;;;30.20;20.17;;;10.90;99.90;;;;;;4954353;29;20487;-52
2023/12/25 04:46:45;;;;;;;45.97;28.65;;;10.90;99.90;;;;;;4954073;29;20027;-53
2023/12/25 04:49:11;;;;;;;41.67;27.88;;;10.90;99.90;;;;;;4904209;29;20059;-53
2023/12/25 04:51:36;;;;;;;48.78;30.67;;;10.90;99.90;;;;;;4953829;29;20041;-53
2023/12/25 04:54:03;;;;;;;39.38;26.67;;;10.80;99.90;;;;;;4953606;29;20027;-53
2023/12/25 04:56:28;;;;;;;48.72;33.95;;;10.70;99.90;;;;;;4953638;29;20032;-53
2023/12/25 04:58:54;;;;;;;48.17;34.53;;;10.70;99.90;;;;;;4953525;29;20027;-53
2023/12/25 05:01:20;;;;;;;59.83;38.63;;;10.70;99.90;;;;;;4953688;29;20059;-53
2023/12/25 05:03:45;;;;;;;58.05;35.42;;;10.80;99.90;;;;;;4953886;29;20031;-53
2023/12/25 05:06:11;;;;;;;36.95;23.15;;;10.70;99.90;;;;;;4953665;29;20070;-53
2023/12/25 05:08:37;;;;;;;42.40;24.58;;;10.60;99.90;;;;;;4953798;29;20535;-52
2023/12/25 05:11:03;;;;;;;29.83;18.10;;;10.60;99.90;;;;;;4953491;29;20072;-53
2023/12/25 05:13:30;;;;;;;25.95;17.70;;;10.20;99.90;;;;;;4953894;29;20174;-52
2023/12/25 05:15:56;;;;;;;22.80;15.93;;;10.10;99.90;;;;;;4953590;29;20078;-53
2023/12/25 05:18:22;;;;;;;29.75;20.58;;;10.00;99.90;;;;;;4904191;29;20118;-52
2023/12/25 05:20:48;;;;;;;24.65;16.73;;;9.70;99.90;;;;;;4953578;29;20135;-53
2023/12/25 05:23:14;;;;;;;26.20;17.25;;;9.90;99.90;;;;;;4953456;29;20044;-54
2023/12/25 05:25:39;;;;;;;22.38;15.73;;;10.00;99.90;;;;;;4953545;29;20033;-53
2023/12/25 05:28:05;;;;;;;25.80;19.83;;;9.90;99.90;;;;;;4953403;29;20031;-53
2023/12/25 05:30:31;;;;;;;31.98;20.25;;;;;;;;;;4953201;29;20692;-53
2023/12/25 05:32:58;;;;;;;26.33;18.65;;;;;;;;;;4953474;29;20032;-53
2023/12/25 05:35:23;;;;;;;21.50;15.27;;;10.10;99.90;;;;;;4953400;29;20391;-53
2023/12/25 05:37:49;;;;;;;29.02;15.95;;;10.20;99.90;;;;;;4953668;29;20024;-53
2023/12/25 05:40:15;;;;;;;25.52;16.23;;;10.20;99.90;;;;;;4953844;29;20034;-53
2023/12/25 05:42:41;;;;;;;27.75;16.63;;;10.20;99.90;;;;;;4953493;29;20114;-53
2023/12/25 05:45:07;;;;;;;32.58;17.60;;;10.20;99.90;;;;;;4953558;29;20106;-52
2023/12/25 05:47:33;;;;;;;36.35;17.23;;;10.20;99.90;;;;;;4903572;29;20032;-53
2023/12/25 05:49:59;;;;;;;45.20;19.35;;;10.30;99.90;;;;;;4953195;29;20090;-53
2023/12/25 05:52:25;;;;;;;37.95;20.02;;;10.30;99.90;;;;;;4951158;29;20031;-53
2023/12/25 05:54:51;;;;;;;25.45;16.55;;;10.20;99.90;;;;;;4953408;29;20078;-53
2023/12/25 05:57:17;;;;;;;28.17;18.20;;;10.20;99.90;;;;;;4904047;29;20119;-53
2023/12/25 05:59:43;;;;;;;22.00;14.15;;;10.30;99.90;;;;;;4951105;29;20554;-53
2023/12/25 06:02:11;;;;;;;22.73;15.45;;;10.30;99.90;;;;;;4953211;29;20051;-54
2023/12/25 06:04:38;;;;;;;23.15;14.48;;;10.30;99.90;;;;;;4953625;29;20050;-52
2023/12/25 06:07:03;;;;;;;36.10;19.58;;;10.10;99.90;;;;;;4953843;28;20110;-52
2023/12/25 06:09:29;;;;;;;27.77;17.17;;;9.80;99.90;;;;;;4957008;29;20106;-52
2023/12/25 06:11:55;;;;;;;23.00;14.40;;;;;;;;;;4956610;29;20035;-52
2023/12/25 06:14:21;;;;;;;21.38;14.25;;;;;;;;;;4954290;29;20036;-52
2023/12/25 06:16:47;;;;;;;22.02;14.50;;;;;;;;;;4954352;29;20040;-53
2023/12/25 06:19:14;;;;;;;21.55;15.35;;;;;;;;;;4954232;29;20487;-52
2023/12/25 06:21:40;;;;;;;26.75;16.95;;;;;;;;;;4952933;29;20023;-52
2023/12/25 06:24:06;;;;;;;19.70;14.15;;;9.70;99.90;;;;;;4887903;29;20075;-52
2023/12/25 06:26:32;;;;;;;83.38;29.70;;;9.70;99.90;;;;;;4936999;29;20051;-52
2023/12/25 06:28:57;;;;;;;22.65;11.55;;;9.60;99.90;;;;;;4936867;29;20028;-53
2023/12/25 06:31:23;;;;;;;21.20;10.90;;;;;;;;;;4872232;29;20036;-53
2023/12/25 06:33:49;;;;;;;28.00;12.88;;;9.60;99.90;;;;;;4937740;29;20047;-56
2023/12/25 06:36:15;;;;;;;16.98;8.80;;;9.50;99.90;;;;;;4937947;29;20416;-52
2023/12/25 06:38:41;;;;;;;18.80;9.40;;;9.60;99.90;;;;;;4903875;29;20369;-53
2023/12/25 06:41:06;;;;;;;23.23;12.70;;;9.70;99.90;;;;;;4919926;29;20056;-53
2023/12/25 06:43:32;;;;;;;17.98;10.85;;;9.80;99.90;;;;;;4937483;29;20411;-53
2023/12/25 06:45:58;;;;;;;29.38;13.18;;;9.90;99.90;;;;;;4936968;29;20031;-53
2023/12/25 06:48:23;;;;;;;25.25;12.82;;;10.10;99.90;;;;;;4934708;29;20036;-53
2023/12/25 06:50:49;;;;;;;20.85;12.77;;;10.30;99.90;;;;;;4936830;29;20031;-54
2023/12/25 06:53:15;;;;;;;22.98;14.45;;;;;;;;;;4937067;29;20035;-52
2023/12/25 06:55:41;;;;;;;40.05;20.70;;;;;;;;;;4887581;29;20051;-54
2023/12/25 06:58:07;;;;;;;44.33;23.08;;;14.10;99.90;;;;;;4936669;29;20031;-53
2023/12/25 07:00:33;;;;;;;22.90;17.25;;;16.40;99.30;;;;;;4936632;29;20436;-52
2023/12/25 07:02:59;;;;;;;30.42;18.48;;;;;;;;;;4919193;29;20131;-53
2023/12/25 07:05:25;;;;;;;;;;;;;;;;;;4936846;29;20024;-52
2023/12/25 07:07:51;;;;;;;;;;;;;;;;;;4937209;29;19907;-49
2023/12/25 07:10:18;;;;;;;20.58;15.68;;;;;;;;;;4935758;29;20395;-51
2023/12/25 07:12:44;;;;;;;17.92;12.15;;;;;;;;;;4936071;29;20035;-52
2023/12/25 07:15:10;;;;;;;19.70;13.30;;;;;;;;;;4936375;29;20036;-53
2023/12/25 07:17:36;;;;;;;20.95;12.25;;;;;;;;;;4918689;29;20036;-52
2023/12/25 07:20:02;;;;;;;19.08;13.05;;;23.20;84.30;;;;;;4936572;29;20114;-52
2023/12/25 07:22:29;;;;;;;18.98;12.75;;;;;;;;;;4936028;29;20035;-52
2023/12/25 07:24:55;;;;;;;27.38;15.00;;;26.80;81.00;;;;;;4936130;29;20114;-52
2023/12/25 07:27:20;;;;;;;28.88;15.30;;;27.60;79.20;;;;;;4936240;29;20106;-51
2023/12/25 07:29:46;;;;;;;29.05;17.33;;;;;;;;;;4935750;29;20028;-51
2023/12/25 07:32:13;;;;;;;33.17;24.70;;;;;;;;;;4933816;29;20032;-51
2023/12/25 07:34:39;;;;;;;30.02;21.30;;;;;;;;;;4935833;29;20052;-52
2023/12/25 07:37:05;;;;;;;19.23;14.43;;;;;;;;;;4935800;29;20027;-53
2023/12/25 07:39:30;;;;;;;25.23;16.00;;;31.40;70.40;;;;;;4933761;29;20103;-53
2023/12/25 07:41:57;;;;;;;20.17;15.02;;;;;;;;;;4886537;29;20443;-52
2023/12/25 07:44:23;;;;;;;20.42;16.25;;;;;;;;;;4935768;29;20035;-51
2023/12/25 07:46:49;;;;;;;22.45;18.50;;;32.40;68.80;;;;;;4935516;29;20521;-52
2023/12/25 07:49:17;;;;;;;22.25;19.55;;;;;;;;;;4935603;29;20031;-53
2023/12/25 07:51:43;;;;;;;35.92;28.15;;;;;;;;;;4935430;29;20071;-52
2023/12/25 07:54:09;;;;;;;37.25;28.83;;;;;;;;;;4935632;29;20448;-52
2023/12/25 07:56:36;;;;;;;77.32;60.90;;;;;;;;;;4935701;29;20028;-52
2023/12/25 07:59:02;;;;;;;81.50;66.45;;;;;;;;;;4935380;29;20369;-52
2023/12/25 08:01:28;;;;;;;80.60;61.40;;;;;;;;;;4935444;29;20056;-52
2023/12/25 08:03:54;;;;;;;76.70;62.78;;;;;;;;;;4935487;29;20036;-52
2023/12/25 08:06:20;;;;;;;98.18;75.28;;;;;;;;;;4886143;29;20071;-52
2023/12/25 08:08:48;;;;;;;101.75;74.78;;;;;;;;;;4935180;29;20027;-52
2023/12/25 08:11:15;;;;;;;107.90;83.40;;;;;;;;;;4935276;29;20058;-52
2023/12/25 08:13:41;;;;;;;104.68;84.65;;;;;;;;;;4935363;29;20035;-53
2023/12/25 08:16:07;;;;;;;102.30;79.22;;;;;;;;;;4935118;29;20024;-53
2023/12/25 08:18:33;;;;;;;86.63;64.25;;;;;;;;;;4935324;29;20110;-52
2023/12/25 08:20:59;;;;;;;73.88;55.58;;;;;;;;;;4934923;29;20040;-52
2023/12/25 08:23:26;;;;;;;88.40;64.63;;;;;;;;;;4935209;29;20353;-53
2023/12/25 08:25:52;;;;;;;78.40;54.78;;;;;;;;;;4934963;29;20028;-52
2023/12/25 08:28:18;;;;;;;128.13;85.63;;;;;;;;;;4935005;29;20024;-53
2023/12/25 08:30:44;;;;;;;111.18;68.13;;;;;;;;;;4933937;29;20043;-53
2023/12/25 08:33:10;;;;;;;99.60;63.05;;;;;;;;;;4935035;29;20031;-52
2023/12/25 08:35:36;;;;;;;84.53;52.53;;;;;;;;;;4934838;29;20091;-53
2023/12/25 08:38:03;;;;;;;66.05;42.05;;;;;;;;;;4934698;29;20036;-52
2023/12/25 08:40:29;;;;;;;60.35;43.22;;;;;;;;;;4935182;29;20047;-52
2023/12/25 08:42:54;;;;;;;37.05;29.35;;;35.00;63.10;;;;;;4934913;29;20384;-53
2023/12/25 08:45:20;;;;;;;63.38;45.80;;;34.10;62.70;;;;;;4932799;29;20043;-52
2023/12/25 08:47:51;;;;;;;35.67;25.67;;;34.20;63.10;;;;;;4934878;29;20114;-53
2023/12/25 08:50:17;;;;;;;32.92;27.58;;;32.90;62.90;;;;;;4934985;29;20365;-53
2023/12/25 08:52:43;;;;;;;38.35;29.63;;;32.30;64.20;;;;;;4885533;29;20056;-53
2023/12/25 08:55:10;;;;;;;36.97;27.02;;;32.00;65.60;;;;;;4885828;29;20035;-52
2023/12/25 08:57:36;;;;;;;36.47;26.70;;;;;;;;;;4934719;29;20491;-52
2023/12/25 09:00:10;;;;;;;33.67;27.70;;;;;;;;;;4932276;29;20036;-51
2023/12/25 09:02:37;;;;;;;34.30;27.38;;;;;;;;;;4902219;29;20630;-52
2023/12/25 09:05:03;;;;;;;38.38;29.52;;;28.40;69.80;;;;;;4934462;29;20036;-52
2023/12/25 09:07:28;;;;;;;34.78;28.75;;;28.00;71.80;;;;;;4885246;29;20090;-52
2023/12/25 09:09:54;;;;;;;39.83;31.40;;;27.40;68.80;;;;;;4934603;29;20038;-52
2023/12/25 09:12:20;;;;;;;52.83;42.95;;;27.90;70.00;;;;;;4934446;29;20032;-52
2023/12/25 09:14:46;;;;;;;42.20;34.97;;;;;;;;;;4934408;29;20148;-52
2023/12/25 09:17:12;;;;;;;34.92;31.17;;;29.80;86.40;;;;;;4934536;29;20111;-52
2023/12/25 09:19:38;;;;;;;31.67;24.83;;;30.10;68.20;;;;;;4934385;29;20109;-52
2023/12/25 09:22:04;;;;;;;42.63;38.15;;;29.80;67.30;;;;;;4934228;29;20032;-51
2023/12/25 09:24:30;;;;;;;29.27;24.75;;;29.70;67.00;;;;;;4934449;29;20083;-52
2023/12/25 09:26:56;;;;;;;30.05;24.33;;;30.10;66.80;;;;;;4934502;29;20118;-52
2023/12/25 09:29:21;;;;;;;33.08;24.65;;;30.40;66.90;;;;;;4934434;29;20379;-52
2023/12/25 09:31:47;;;;;;;34.60;26.27;;;30.00;66.70;;;;;;4916261;29;20487;-52
2023/12/25 09:34:13;;;;;;;31.38;26.15;;;30.40;66.80;;;;;;4934264;29;20515;-52
2023/12/25 09:36:39;;;;;;;25.77;21.85;;;;;;;;;;4934588;29;20042;-52
2023/12/25 09:39:05;;;;;;;29.05;22.85;;;31.60;66.00;;;;;;4934163;29;20035;-52
2023/12/25 09:41:32;;;;;;;28.10;21.30;;;32.10;65.70;;;;;;4935851;29;20408;-53
2023/12/25 09:44:02;;;;;;;30.70;24.00;;;32.40;65.40;;;;;;4938142;29;20440;-52
2023/12/25 09:46:29;;;;;;;30.60;22.88;;;32.60;65.00;;;;;;4937985;29;20024;-51
2023/12/25 09:48:58;;;;;;;27.58;21.83;;;32.60;65.00;;;;;;4937760;29;20039;-53
2023/12/25 09:51:27;;;;;;;34.70;26.63;;;;;;;;;;4937695;29;20471;-51
2023/12/25 09:53:53;;;;;;;34.30;26.75;;;33.80;86.90;;;;;;4937978;29;20082;-52
2023/12/25 09:56:21;;;;;;;38.75;29.33;;;32.90;64.40;;;;;;4897878;29;20503;-53
2023/12/25 09:58:48;;;;;;;34.45;27.70;;;32.90;64.20;;;;;;4955616;29;20063;-52
2023/12/25 10:01:15;;;;;;;32.40;25.25;;;32.70;64.50;;;;;;4955460;29;20059;-52
2023/12/25 10:03:45;;;;;;;30.05;25.40;;;32.30;65.30;;;;;;4956587;29;20090;-52
2023/12/25 10:06:11;;;;;;;32.83;24.70;;;31.90;65.80;;;;;;4956817;29;20039;-52
2023/12/25 10:08:37;;;;;;;27.40;22.30;;;;;;;;;;4956948;29;20467;-52
2023/12/25 10:11:13;;;;;;;23.83;21.08;;;30.80;65.10;;;;;;4956241;29;20039;-52
2023/12/25 10:13:39;;;;;;;25.63;20.90;;;30.10;66.20;;;;;;4956484;29;20024;-52
2023/12/25 10:16:06;;;;;;;25.33;20.73;;;31.10;66.70;;;;;;4956614;29;20031;-52
2023/12/25 10:18:38;;;;;;;25.88;20.98;;;31.40;66.40;;;;;;4922132;29;20055;-53
2023/12/25 10:21:04;;;;;;;25.48;20.33;;;31.90;66.30;;;;;;4956262;29;20049;-52
2023/12/25 10:23:34;;;;;;;31.40;26.55;;;32.20;65.90;;;;;;4956548;29;20494;-52
2023/12/25 10:26:02;;;;;;;40.35;28.33;;;32.20;65.70;;;;;;4954112;29;20039;-53
2023/12/25 10:28:32;;;;;;;37.30;28.70;;;;;;;;;;4956106;29;20423;-53
2023/12/25 10:31:02;;;;;;;32.63;25.60;;;;;;;;;;4956075;29;20126;-52
2023/12/25 10:33:28;;;;;;;34.30;27.65;;;;;;;;;;4955973;29;20034;-52
2023/12/25 10:36:02;;;;;;;29.15;20.95;;;;;;;;;;4956404;29;20034;-52
2023/12/25 10:38:28;;;;;;;30.95;20.85;;;;;;;;;;4956001;29;20063;-53
2023/12/25 10:40:54;;;;;;;20.77;14.55;;;;;;;;;;4955866;29;20027;-52
2023/12/25 10:43:21;;;;;;;22.00;15.27;;;;;;;;;;4955979;29;20027;-53
2023/12/25 10:45:50;;;;;;;18.42;13.35;;;;;;;;;;4956078;29;20035;-52
2023/12/25 10:48:19;;;;;;;19.08;13.00;;;;;;;;;;4955769;29;20028;-52
2023/12/25 10:50:45;;;;;;;21.50;14.13;;;;;;;;;;4915095;29;20508;-53
2023/12/25 10:53:16;;;;;;;16.15;11.93;;;31.90;95.30;;;;;;4914482;29;20062;-52
2023/12/25 10:55:43;;;;;;;;;;;31.70;90.80;;;;;;4915643;29;20629;-53
2023/12/25 10:58:11;;;;;;;27.63;18.85;;;;;;;;;;4915295;29;20310;-53
2023/12/25 11:00:39;;;;;;;20.20;15.25;;;;;;;;;;4915056;29;20044;-53
2023/12/25 11:03:05;;;;;;;23.08;16.90;;;;;;;;;;4914912;29;20063;-53
2023/12/25 11:05:32;;;;;;;21.05;15.85;;;;;;;;;;4915004;29;20095;-51
2023/12/25 11:07:58;;;;;;;23.23;16.33;;;30.50;95.00;;;;;;4915085;29;20071;-52
2023/12/25 11:10:27;;;;;;;21.73;15.73;;;28.50;66.10;;;;;;4914623;29;20083;-52
2023/12/25 11:12:54;;;;;;;22.50;15.77;;;28.00;67.00;;;;;;4914838;29;20055;-52
2023/12/25 11:15:20;;;;;;;20.80;15.93;;;27.90;67.50;;;;;;4914859;29;20749;-52
2023/12/25 11:17:46;;;;;;;123.32;87.22;;;28.70;67.70;;;;;;4914785;29;20024;-52
2023/12/25 11:20:12;;;;;;;87.78;60.53;;;;;;;;;;4914795;29;20032;-52
2023/12/25 11:22:40;;;;;;;64.93;45.60;;;27.50;71.80;;;;;;4948447;29;20134;-53
2023/12/25 11:25:11;;;;;;;25.27;17.77;;;;;;;;;;4955097;29;20035;-52
2023/12/25 11:27:37;;;;;;;38.63;22.15;;;26.90;89.40;;;;;;4954988;29;20699;-52
2023/12/25 11:30:07;;;;;;;45.13;27.63;;;26.50;68.50;;;;;;4914356;29;20044;-52
2023/12/25 11:32:35;;;;;;;24.25;16.05;;;26.20;69.10;;;;;;4898987;29;20058;-52
2023/12/25 11:35:01;;;;;;;20.08;15.48;;;27.00;69.00;;;;;;4914419;29;20044;-53
2023/12/25 11:37:28;;;;;;;22.80;15.63;;;27.00;70.90;;;;;;4914302;29;20104;-53
2023/12/25 11:40:07;;;;;;;17.73;13.95;;;27.30;70.80;;;;;;4914297;29;20051;-52
2023/12/25 11:42:34;;;;;;;31.48;20.25;;;27.70;70.70;;;;;;4914290;29;20036;-52
2023/12/25 11:45:00;;;;;;;18.23;13.13;;;;;;;;;;4914189;29;20040;-53
2023/12/25 11:47:28;;;;;;;20.25;13.88;;;28.50;92.70;;;;;;4914300;29;20036;-55
2023/12/25 11:49:56;;;;;;;19.63;13.63;;;28.60;67.10;;;;;;4894984;29;20560;-52
2023/12/25 11:52:43;;;;;;;18.27;12.77;;;28.60;66.80;;;;;;4895328;29;20501;-52
2023/12/25 11:55:15;;;;;;;17.83;12.43;;;;;;;;;;4895301;29;20040;-52
2023/12/25 11:57:43;;;;;;;22.90;15.23;;;28.00;67.20;;;;;;4895043;29;20050;-52
2023/12/25 12:00:18;;;;;;;19.35;14.38;;;27.90;68.10;;;;;;4899877;29;20044;-52
2023/12/25 12:02:44;;;;;;;21.00;14.40;;;27.20;68.40;;;;;;4932672;29;20055;-53
2023/12/25 12:05:11;;;;;;;25.45;15.75;;;;;;;;;;4917024;29;20184;-52
2023/12/25 12:07:37;;;;;;;21.02;14.48;;;26.40;71.00;;;;;;4933042;29;20059;-52
2023/12/25 12:10:02;;;;;;;23.08;16.70;;;26.10;69.70;;;;;;4932877;29;20083;-52
2023/12/25 12:12:28;;;;;;;17.27;11.70;;;26.10;70.50;;;;;;4916868;29;20043;-52
2023/12/25 12:14:54;;;;;;;18.95;12.98;;;;;;;;;;4932673;29;20040;-53
2023/12/25 12:17:21;;;;;;;19.88;12.48;;;;;;;;;;4932847;29;20034;-52
2023/12/25 12:19:47;;;;;;;19.85;13.48;;;24.40;71.00;;;;;;4933546;29;20067;-52
2023/12/25 12:22:16;;;;;;;22.27;14.52;;;24.50;72.00;;;;;;4954184;29;20433;-52
2023/12/25 12:24:42;;;;;;;25.83;14.15;;;23.90;73.20;;;;;;4954115;29;20039;-52
2023/12/25 12:27:08;;;;;;;20.63;14.02;;;23.50;72.60;;;;;;4954035;29;20086;-53
2023/12/25 12:29:34;;;;;;;19.92;12.57;;;23.80;72.70;;;;;;4954255;29;20035;-52
2023/12/25 12:32:00;;;;;;;22.48;13.27;;;23.90;72.50;;;;;;4953803;29;20043;-53
2023/12/25 12:34:26;;;;;;;18.45;12.52;;;23.80;72.30;;;;;;4953008;29;20432;-52
2023/12/25 12:37:05;;;;;;;21.13;12.85;;;23.70;72.50;;;;;;4945487;29;20036;-52
2023/12/25 12:39:31;;;;;;;18.60;12.27;;;23.70;72.70;;;;;;4934947;29;20027;-52
2023/12/25 12:41:58;;;;;;;18.98;11.65;;;23.60;72.80;;;;;;4932624;29;20126;-52
2023/12/25 12:44:25;;;;;;;19.45;11.70;;;23.40;73.00;;;;;;4934771;29;20031;-52
2023/12/25 12:46:52;;;;;;;17.67;12.30;;;23.20;73.20;;;;;;4934649;29;20040;-52
2023/12/25 12:49:21;;;;;;;18.70;11.43;;;23.20;73.40;;;;;;4932572;29;20448;-51
2023/12/25 12:51:48;;;;;;;19.40;12.88;;;23.40;73.90;;;;;;4931919;29;20456;-52
2023/12/25 12:54:14;;;;;;;35.17;19.80;;;23.20;74.10;;;;;;4932430;29;20043;-52